createdAt,value
2022-10-11T00:01:49.577Z,2.33
2022-10-11T00:04:26.019Z,2.65
2022-10-11T00:06:57.788Z,2.78
2022-10-11T00:09:29.798Z,2.28
2022-10-11T00:12:04.249Z,2.67
2022-10-11T00:14:37.066Z,2.70
2022-10-11T00:17:09.648Z,2.25
2022-10-11T00:19:41.609Z,2.70
2022-10-11T00:22:16.229Z,2.78
2022-10-11T00:24:48.336Z,2.40
2022-10-11T00:27:24.897Z,3.20
2022-10-11T00:29:57.387Z,2.50
2022-10-11T00:32:29.459Z,2.50
2022-10-11T00:35:05.105Z,2.58
2022-10-11T00:37:38.849Z,2.97
2022-10-11T00:40:17.618Z,2.78
2022-10-11T00:42:52.136Z,2.47
2022-10-11T00:46:03.098Z,2.90
2022-10-11T00:48:44.058Z,2.80
2022-10-11T00:51:23.809Z,2.45
2022-10-11T00:53:56.739Z,2.47
2022-10-11T00:56:37.368Z,2.55
2022-10-11T00:59:15.438Z,2.70
2022-10-11T01:01:47.808Z,2.83
2022-10-11T01:04:19.578Z,3.20
2022-10-11T01:06:53.649Z,2.40
2022-10-11T01:09:25.899Z,2.90
2022-10-11T01:12:04.156Z,3.30
2022-10-11T01:15:06.440Z,2.85
2022-10-11T01:17:53.557Z,2.72
2022-10-11T01:20:37.798Z,3.08
2022-10-11T01:23:53.336Z,2.60
2022-10-11T01:26:59.659Z,2.80
2022-10-11T01:29:49.698Z,2.75
2022-10-11T01:32:30.205Z,2.75
2022-10-11T01:35:08.836Z,3.05
2022-10-11T01:37:43.870Z,3.22
2022-10-11T01:40:22.337Z,2.72
2022-10-11T01:42:55.885Z,3.15
2022-10-11T01:45:28.648Z,3.92
2022-10-11T01:48:11.914Z,3.30
2022-10-11T01:50:48.299Z,2.63
2022-10-11T01:53:50.827Z,3.58
2022-10-11T01:56:33.988Z,3.33
2022-10-11T01:59:29.381Z,3.47
2022-10-11T02:02:13.806Z,3.38
2022-10-11T02:04:53.547Z,3.42
2022-10-11T02:07:30.888Z,3.28
2022-10-11T02:10:10.968Z,3.38
2022-10-11T02:12:48.728Z,3.25
2022-10-11T02:15:22.286Z,3.20
2022-10-11T02:17:59.536Z,2.92
2022-10-11T02:20:37.548Z,2.80
2022-10-11T02:23:13.867Z,2.88
2022-10-11T02:25:49.407Z,3.28
2022-10-11T02:28:26.800Z,2.88
2022-10-11T02:31:01.750Z,3.30
2022-10-11T02:33:40.736Z,3.08
2022-10-11T02:36:25.073Z,3.47
2022-10-11T02:39:01.321Z,3.67
2022-10-11T02:41:37.396Z,3.05
2022-10-11T02:44:14.187Z,3.08
2022-10-11T02:46:48.607Z,3.78
2022-10-11T02:49:21.800Z,3.00
2022-10-11T02:51:58.438Z,3.30
2022-10-11T02:54:30.767Z,3.40
2022-10-11T02:57:02.588Z,3.63
2022-10-11T02:59:34.661Z,3.00
2022-10-11T03:02:06.455Z,3.13
2022-10-11T03:04:38.606Z,3.47
2022-10-11T03:07:13.061Z,3.35
2022-10-11T03:09:47.399Z,3.70
2022-10-11T03:12:19.196Z,3.28
2022-10-11T03:14:51.256Z,3.65
2022-10-11T03:17:37.943Z,3.42
2022-10-11T03:20:16.227Z,3.42
2022-10-11T03:22:53.105Z,4.22
2022-10-11T03:25:25.126Z,3.92
2022-10-11T03:27:56.846Z,3.90
2022-10-11T03:30:29.136Z,3.90
2022-10-11T03:33:01.026Z,3.58
2022-10-11T03:35:35.470Z,3.92
2022-10-11T03:38:12.977Z,3.53
2022-10-11T03:40:46.097Z,4.47
2022-10-11T03:43:20.727Z,3.90
2022-10-11T03:45:52.717Z,4.35
2022-10-11T03:48:24.427Z,4.13
2022-10-11T03:50:57.830Z,4.63
2022-10-11T03:53:32.246Z,4.38
2022-10-11T03:56:08.329Z,4.80
2022-10-11T03:58:41.489Z,4.93
2022-10-11T04:01:14.036Z,4.88
2022-10-11T04:03:45.759Z,4.50
2022-10-11T04:06:18.960Z,4.93
2022-10-11T04:08:53.468Z,4.55
2022-10-11T04:11:25.656Z,4.50
2022-10-11T04:13:57.540Z,4.72
2022-10-11T04:16:30.997Z,5.13
2022-10-11T04:19:02.668Z,5.10
2022-10-11T04:21:34.673Z,4.68
2022-10-11T04:24:09.437Z,5.57
2022-10-11T04:26:41.829Z,5.28
2022-10-11T04:29:13.476Z,4.95
2022-10-11T04:31:45.680Z,5.63
2022-10-11T04:34:17.576Z,4.97
2022-10-11T04:36:50.188Z,5.13
2022-10-11T04:39:24.546Z,5.15
2022-10-11T04:41:57.789Z,5.57
2022-10-11T04:44:32.419Z,6.38
2022-10-11T04:47:06.875Z,6.03
2022-10-11T04:49:38.352Z,5.85
2022-10-11T04:52:10.198Z,6.65
2022-10-11T04:54:44.393Z,5.95
2022-10-11T04:57:16.047Z,5.10
2022-10-11T04:59:50.167Z,6.40
2022-10-11T05:02:22.323Z,6.07
2022-10-11T05:04:54.244Z,6.00
2022-10-11T05:07:26.004Z,6.28
2022-10-11T05:09:59.968Z,6.50
2022-10-11T05:12:31.737Z,6.25
2022-10-11T05:15:03.477Z,7.07
2022-10-11T05:17:35.347Z,6.90
2022-10-11T05:20:07.477Z,6.50
2022-10-11T05:22:39.417Z,6.55
2022-10-11T05:25:13.978Z,6.30
2022-10-11T05:27:46.158Z,7.05
2022-10-11T05:30:17.816Z,7.05
2022-10-11T05:32:49.705Z,6.97
2022-10-11T05:35:21.299Z,7.50
2022-10-11T05:37:55.979Z,6.30
2022-10-11T05:40:30.203Z,6.57
2022-10-11T05:43:02.199Z,6.80
2022-10-11T05:45:35.379Z,6.13
2022-10-11T05:48:08.061Z,7.43
2022-10-11T05:50:40.578Z,6.53
2022-10-11T05:53:15.226Z,7.18
2022-10-11T05:55:50.259Z,7.32
2022-10-11T05:58:22.243Z,7.25
2022-10-11T06:00:53.932Z,8.43
2022-10-11T06:03:26.119Z,7.07
2022-10-11T06:06:00.260Z,7.50
2022-10-11T06:08:32.200Z,7.80
2022-10-11T06:11:14.016Z,6.97
2022-10-11T06:13:46.316Z,6.88
2022-10-11T06:16:18.358Z,7.03
2022-10-11T06:18:50.338Z,7.53
2022-10-11T06:21:21.798Z,8.10
2022-10-11T06:23:59.860Z,7.53
2022-10-11T06:26:35.826Z,7.40
2022-10-11T06:29:08.420Z,7.32
2022-10-11T06:31:40.742Z,7.30
2022-10-11T06:34:12.700Z,7.05
2022-10-11T06:36:44.314Z,7.00
2022-10-11T06:39:16.219Z,6.43
2022-10-11T06:41:50.318Z,6.60
2022-10-11T06:44:22.337Z,6.43
2022-10-11T06:46:54.367Z,5.82
2022-10-11T06:49:26.533Z,5.95
2022-10-11T06:51:58.458Z,5.68
2022-10-11T06:54:31.227Z,6.07
2022-10-11T06:57:07.420Z,6.57
2022-10-11T06:59:42.940Z,6.43
2022-10-11T07:02:15.220Z,5.93
2022-10-11T07:04:47.789Z,6.28
2022-10-11T07:07:20.059Z,6.40
2022-10-11T07:09:52.742Z,6.40
2022-10-11T07:12:29.219Z,5.95
2022-10-11T07:15:01.820Z,6.32
2022-10-11T07:17:34.112Z,6.10
2022-10-11T07:20:06.962Z,5.38
2022-10-11T07:22:39.430Z,5.82
2022-10-11T07:25:12.590Z,5.88
2022-10-11T07:27:49.691Z,5.70
2022-10-11T07:30:22.632Z,6.32
2022-10-11T07:32:54.793Z,5.53
2022-10-11T07:35:27.589Z,6.35
2022-10-11T07:37:59.900Z,5.65
2022-10-11T07:40:33.156Z,5.40
2022-10-11T07:43:09.909Z,5.60
2022-10-11T07:45:43.168Z,5.47
2022-10-11T07:48:15.470Z,6.13
2022-10-11T07:50:48.311Z,5.72
2022-10-11T07:53:20.469Z,5.25
2022-10-11T07:55:53.430Z,5.60
2022-10-11T07:58:28.469Z,5.72
2022-10-11T08:01:01.079Z,5.45
2022-10-11T08:03:33.609Z,5.28
2022-10-11T08:08:43.218Z,5.05
2022-10-11T08:11:23.926Z,5.22
2022-10-11T08:14:01.947Z,4.85
2022-10-11T08:16:48.232Z,4.60
2022-10-11T08:19:20.670Z,4.38
2022-10-11T08:21:54.600Z,4.95
2022-10-11T08:24:26.866Z,5.25
2022-10-11T08:26:59.987Z,5.03
2022-10-11T08:29:36.025Z,4.57
2022-10-11T08:32:12.229Z,4.68
2022-10-11T08:34:44.547Z,4.28
2022-10-11T08:37:17.113Z,3.53
2022-10-11T08:39:49.546Z,3.83
2022-10-11T08:42:32.507Z,3.85
2022-10-11T08:45:12.421Z,3.92
2022-10-11T08:47:48.394Z,3.83
2022-10-11T08:50:23.588Z,4.10
2022-10-11T08:53:01.106Z,3.33
2022-10-11T08:55:42.266Z,3.85
2022-10-11T08:58:20.826Z,3.65
2022-10-11T09:00:59.985Z,3.60
2022-10-11T09:03:41.682Z,3.55
2022-10-11T09:06:24.745Z,4.05
2022-10-11T09:09:16.028Z,3.28
2022-10-11T09:12:00.707Z,3.40
2022-10-11T09:15:00.633Z,3.15
2022-10-11T09:17:50.745Z,3.25
2022-10-11T09:20:48.987Z,3.30
2022-10-11T09:23:35.238Z,3.65
2022-10-11T09:26:10.195Z,3.45
2022-10-11T09:29:00.889Z,3.58
2022-10-11T09:31:36.472Z,3.83
2022-10-11T09:34:16.034Z,3.70
2022-10-11T09:36:55.992Z,3.03
2022-10-11T09:39:35.766Z,3.05
2022-10-11T09:42:10.992Z,2.95
2022-10-11T09:44:49.073Z,3.30
2022-10-11T09:47:24.000Z,2.95
2022-10-11T09:50:05.355Z,3.35
2022-10-11T09:52:38.112Z,2.88
2022-10-11T09:55:10.993Z,2.88
2022-10-11T09:57:44.081Z,2.58
2022-10-11T10:00:24.871Z,2.58
2022-10-11T10:02:59.156Z,2.60
2022-10-11T10:05:37.151Z,2.60
2022-10-11T10:08:27.192Z,3.20
2022-10-11T10:11:04.792Z,2.92
2022-10-11T10:13:50.283Z,2.65
2022-10-11T10:16:27.270Z,2.92
2022-10-11T10:19:03.796Z,3.15
2022-10-11T10:21:43.250Z,2.67
2022-10-11T10:24:24.149Z,2.60
2022-10-11T10:27:10.751Z,2.35
2022-10-11T10:29:44.032Z,2.42
2022-10-11T10:32:28.706Z,2.63
2022-10-11T10:35:17.955Z,2.70
2022-10-11T10:38:04.139Z,2.40
2022-10-11T10:40:42.423Z,2.35
2022-10-11T10:43:21.940Z,3.08
2022-10-11T10:46:09.040Z,3.17
2022-10-11T10:49:28.783Z,3.28
2022-10-11T10:51:49.804Z,2.88
2022-10-11T10:54:36.473Z,2.90
2022-10-11T10:57:20.176Z,2.53
2022-10-11T11:00:07.676Z,2.63
2022-10-11T11:02:49.862Z,2.75
2022-10-11T11:05:40.805Z,2.40
2022-10-11T11:08:22.701Z,2.47
2022-10-11T11:11:08.158Z,2.58
2022-10-11T11:13:48.724Z,2.72
2022-10-11T11:16:35.641Z,2.45
2022-10-11T11:19:17.509Z,1.95
2022-10-11T11:21:58.562Z,2.33
2022-10-11T11:24:42.774Z,2.50
2022-10-11T11:27:29.243Z,2.40
2022-10-11T11:30:08.082Z,2.30
2022-10-11T11:32:50.928Z,2.70
2022-10-11T11:35:31.047Z,1.98
2022-10-11T11:38:07.790Z,2.40
2022-10-11T11:40:47.294Z,2.25
2022-10-11T11:43:29.197Z,2.35
2022-10-11T11:46:13.960Z,2.38
2022-10-11T11:48:47.538Z,2.58
2022-10-11T11:51:22.429Z,2.42
2022-10-11T11:54:08.529Z,2.60
2022-10-11T11:56:54.303Z,2.22
2022-10-11T11:59:59.379Z,2.25
2022-10-11T12:03:01.649Z,2.00
2022-10-11T12:05:39.224Z,2.08
2022-10-11T12:08:27.635Z,2.20
2022-10-11T12:11:04.862Z,1.88
2022-10-11T12:13:38.861Z,2.00
2022-10-11T12:16:18.490Z,2.20
2022-10-11T12:18:54.785Z,2.10
2022-10-11T12:21:33.629Z,2.35
2022-10-11T12:24:14.485Z,2.20
2022-10-11T12:26:47.776Z,2.22
2022-10-11T12:29:58.138Z,2.30
2022-10-11T12:33:05.897Z,2.42
2022-10-11T12:36:01.479Z,2.22
2022-10-11T12:38:37.939Z,2.17
2022-10-11T12:41:40.767Z,2.30
2022-10-11T12:44:23.496Z,2.28
2022-10-11T12:47:24.180Z,2.03
2022-10-11T12:50:13.286Z,2.10
2022-10-11T12:53:04.052Z,2.20
2022-10-11T12:55:54.785Z,2.15
2022-10-11T12:58:38.695Z,2.00
2022-10-11T13:01:23.228Z,2.67
2022-10-11T13:04:02.583Z,1.80
2022-10-11T13:06:41.176Z,1.73
2022-10-11T13:09:21.716Z,2.25
2022-10-11T13:11:57.388Z,2.13
2022-10-11T13:14:34.469Z,2.35
2022-10-11T13:17:17.836Z,2.40
2022-10-11T13:19:53.893Z,1.98
2022-10-11T13:22:28.606Z,1.75
2022-10-11T13:25:00.293Z,2.00
2022-10-11T13:27:31.688Z,2.40
2022-10-11T13:30:06.538Z,2.03
2022-10-11T13:32:39.923Z,2.10
2022-10-11T13:35:23.830Z,2.40
2022-10-11T13:37:59.614Z,2.35
2022-10-11T13:40:34.254Z,1.95
2022-10-11T13:43:09.012Z,1.98
2022-10-11T13:45:42.336Z,2.10
2022-10-11T13:48:19.772Z,1.80
2022-10-11T13:51:10.493Z,2.30
2022-10-11T13:54:00.494Z,1.80
2022-10-11T13:56:36.476Z,1.83
2022-10-11T13:59:08.826Z,2.05
2022-10-11T14:01:44.569Z,2.20
2022-10-11T14:04:19.695Z,2.20
2022-10-11T14:06:58.658Z,2.47
2022-10-11T14:09:36.413Z,2.63
2022-10-11T14:12:32.457Z,2.00
2022-10-11T14:15:06.534Z,2.20
2022-10-11T14:17:46.415Z,2.22
2022-10-11T14:20:23.457Z,2.00
2022-10-11T14:22:57.414Z,2.30
2022-10-11T14:25:33.094Z,2.58
2022-10-11T14:28:16.341Z,2.08
2022-10-11T14:30:49.014Z,2.40
2022-10-11T14:33:22.255Z,2.20
2022-10-11T14:35:54.857Z,2.17
2022-10-11T14:38:27.700Z,2.00
2022-10-11T14:41:02.894Z,2.25
2022-10-11T14:43:35.817Z,2.30
2022-10-11T14:46:08.631Z,2.00
2022-10-11T14:48:54.901Z,2.38
2022-10-11T14:51:34.374Z,1.63
2022-10-11T14:54:07.493Z,1.88
2022-10-11T14:56:42.853Z,2.10
2022-10-11T14:59:18.535Z,1.88
2022-10-11T15:01:54.151Z,2.10
2022-10-11T15:04:29.253Z,2.35
2022-10-11T15:07:02.400Z,2.00
2022-10-11T15:09:35.645Z,2.25
2022-10-11T15:12:12.745Z,1.67
2022-10-11T15:14:45.756Z,2.67
2022-10-11T15:17:18.316Z,2.33
2022-10-11T15:19:51.358Z,2.15
2022-10-11T15:22:23.834Z,2.28
2022-10-11T15:25:17.259Z,2.40
2022-10-11T15:27:51.702Z,2.33
2022-10-11T15:30:27.525Z,2.33
2022-10-11T15:32:59.394Z,2.40
2022-10-11T15:35:34.467Z,2.08
2022-10-11T15:38:06.765Z,2.00
2022-10-11T15:40:49.078Z,1.92
2022-10-11T15:43:25.168Z,2.67
2022-10-11T15:46:05.090Z,2.92
2022-10-11T15:48:44.366Z,2.50
2022-10-11T15:51:20.378Z,1.92
2022-10-11T15:54:01.254Z,2.22
2022-10-11T15:56:46.165Z,2.70
2022-10-11T15:59:28.499Z,2.60
2022-10-11T16:02:05.584Z,2.67
2022-10-11T16:04:52.950Z,2.60
2022-10-11T16:07:41.003Z,2.85
2022-10-11T16:10:15.573Z,2.95
2022-10-11T16:13:16.466Z,2.58
2022-10-11T16:15:58.836Z,2.20
2022-10-11T16:18:36.989Z,3.10
2022-10-11T16:21:32.341Z,2.97
2022-10-11T16:24:13.844Z,2.55
2022-10-11T16:26:48.408Z,2.55
2022-10-11T16:29:20.727Z,2.85
2022-10-11T16:31:55.366Z,2.70
2022-10-11T16:34:27.648Z,3.63
2022-10-11T16:36:59.533Z,4.30
2022-10-11T16:39:31.995Z,2.85
2022-10-11T16:42:04.108Z,3.03
2022-10-11T16:44:38.824Z,3.10
2022-10-11T16:47:13.573Z,3.60
2022-10-11T16:49:46.049Z,4.00
2022-10-11T16:52:17.990Z,3.70
2022-10-11T16:54:51.610Z,3.55
2022-10-11T16:57:23.752Z,2.83
2022-10-11T16:59:56.079Z,3.10
2022-10-11T17:02:32.573Z,3.08
2022-10-11T17:05:05.063Z,3.80
2022-10-11T17:07:37.163Z,4.38
2022-10-11T17:10:10.978Z,4.20
2022-10-11T17:12:47.747Z,3.45
2022-10-11T17:15:23.354Z,3.83
2022-10-11T17:17:58.974Z,3.55
2022-10-11T17:20:31.237Z,3.97
2022-10-11T17:23:03.395Z,4.07
2022-10-11T17:25:35.655Z,4.25
2022-10-11T17:28:07.558Z,4.53
2022-10-11T17:30:41.938Z,4.32
2022-10-11T17:33:16.436Z,4.38
2022-10-11T17:35:48.779Z,4.90
2022-10-11T17:38:21.157Z,4.18
2022-10-11T17:41:02.177Z,4.20
2022-10-11T17:43:34.936Z,4.30
2022-10-11T17:46:09.657Z,4.75
2022-10-11T17:48:45.716Z,4.80
2022-10-11T17:51:20.416Z,4.85
2022-10-11T17:53:53.857Z,4.70
2022-10-11T17:56:30.417Z,4.55
2022-10-11T17:59:04.334Z,4.97
2022-10-11T18:01:36.496Z,4.90
2022-10-11T18:04:16.846Z,4.93
2022-10-11T18:06:51.057Z,5.00
2022-10-11T18:09:25.478Z,4.38
2022-10-11T18:11:57.798Z,7.15
2022-10-11T18:14:29.797Z,8.88
2022-10-11T18:17:01.996Z,7.53
2022-10-11T18:19:36.572Z,5.53
2022-10-11T18:22:08.870Z,6.22
2022-10-11T18:24:41.708Z,6.55
2022-10-11T18:27:14.072Z,6.28
2022-10-11T18:29:45.873Z,5.78
2022-10-11T18:32:21.170Z,5.55
2022-10-11T18:34:56.092Z,6.05
2022-10-11T18:37:28.870Z,5.18
2022-10-11T18:40:00.790Z,6.60
2022-10-11T18:42:33.171Z,5.40
2022-10-11T18:45:04.990Z,5.65
2022-10-11T18:47:37.309Z,5.32
2022-10-11T18:50:12.808Z,5.50
2022-10-11T18:52:45.557Z,5.35
2022-10-11T18:55:17.830Z,5.40
2022-10-11T18:57:50.097Z,5.30
2022-10-11T19:00:40.084Z,5.38
2022-10-11T19:03:13.417Z,5.53
2022-10-11T19:05:47.929Z,5.80
2022-10-11T19:08:20.148Z,5.88
2022-10-11T19:10:52.196Z,5.72
2022-10-11T19:13:24.412Z,6.05
2022-10-11T19:15:56.229Z,5.80
2022-10-11T19:18:28.709Z,5.47
2022-10-11T19:21:04.609Z,6.65
2022-10-11T19:23:39.487Z,5.95
2022-10-11T19:26:15.929Z,5.50
2022-10-11T19:28:51.066Z,6.10
2022-10-11T19:31:23.030Z,6.60
2022-10-11T19:33:55.849Z,6.53
2022-10-11T19:36:36.272Z,6.05
2022-10-11T19:39:09.554Z,6.45
2022-10-11T19:41:41.431Z,6.32
2022-10-11T19:44:14.290Z,6.20
2022-10-11T19:46:52.671Z,6.30
2022-10-11T19:49:26.130Z,7.18
2022-10-11T19:52:01.632Z,6.40
2022-10-11T19:54:35.029Z,6.47
2022-10-11T19:57:08.991Z,7.10
2022-10-11T19:59:41.208Z,7.05
2022-10-11T20:02:13.658Z,7.75
2022-10-11T20:04:52.375Z,7.18
2022-10-11T20:07:27.790Z,7.32
2022-10-11T20:10:00.559Z,8.52
2022-10-11T20:12:32.683Z,8.50
2022-10-11T20:15:05.008Z,8.65
2022-10-11T20:17:48.956Z,7.93
2022-10-11T20:20:22.409Z,8.10
2022-10-11T20:22:57.111Z,8.43
2022-10-11T20:25:29.437Z,8.23
2022-10-11T20:28:01.328Z,7.45
2022-10-11T20:30:33.610Z,7.70
2022-10-11T20:33:05.511Z,7.82
2022-10-11T20:35:39.931Z,7.10
2022-10-11T20:38:14.510Z,7.50
2022-10-11T20:40:46.648Z,7.20
2022-10-11T20:43:18.608Z,7.68
2022-10-11T20:46:02.049Z,7.20
2022-10-11T20:48:34.813Z,8.00
2022-10-11T20:51:07.713Z,7.38
2022-10-11T20:53:44.248Z,7.15
2022-10-11T20:56:18.618Z,7.18
2022-10-11T20:58:53.372Z,7.13
2022-10-11T21:01:27.747Z,7.35
2022-10-11T21:04:01.538Z,7.35
2022-10-11T21:06:35.692Z,7.50
2022-10-11T21:09:12.664Z,8.02
2022-10-11T21:11:48.589Z,7.03
2022-10-11T21:14:20.470Z,7.55
2022-10-11T21:16:52.748Z,7.38
2022-10-11T21:19:24.651Z,7.85
2022-10-11T21:21:56.833Z,6.78
2022-10-11T21:24:31.369Z,7.13
2022-10-11T21:27:03.650Z,8.00
2022-10-11T21:29:35.488Z,7.18
2022-10-11T21:32:12.016Z,7.32
2022-10-11T21:34:46.131Z,7.18
2022-10-11T21:37:18.480Z,7.30
2022-10-11T21:39:53.110Z,7.18
2022-10-11T21:42:29.430Z,7.47
2022-10-11T21:45:01.578Z,7.28
2022-10-11T21:47:38.106Z,7.10
2022-10-11T21:50:11.309Z,6.57
2022-10-11T21:52:43.948Z,7.10
2022-10-11T21:55:18.909Z,7.13
2022-10-11T21:57:51.430Z,7.75
2022-10-11T22:00:23.628Z,7.57
2022-10-11T22:02:55.990Z,7.38
2022-10-11T22:05:28.297Z,7.75
2022-10-11T22:08:00.749Z,7.95
2022-10-11T22:10:35.890Z,7.72
2022-10-11T22:13:08.391Z,8.13
2022-10-11T22:15:40.871Z,8.15
2022-10-11T22:18:13.450Z,8.27
2022-10-11T22:20:45.432Z,7.40
2022-10-11T22:23:19.452Z,8.35
2022-10-11T22:25:54.430Z,7.97
2022-10-11T22:28:26.836Z,7.97
2022-10-11T22:30:59.208Z,8.63
2022-10-11T22:33:31.916Z,9.35
2022-10-11T22:36:05.933Z,9.80
2022-10-11T22:38:39.330Z,9.50
2022-10-11T22:41:15.029Z,9.10
2022-10-11T22:43:47.789Z,9.90
2022-10-11T22:46:20.126Z,9.45
2022-10-11T22:48:52.692Z,10.30
2022-10-11T22:51:25.029Z,9.57
2022-10-11T22:53:57.489Z,9.40
2022-10-11T22:56:32.458Z,8.80
2022-10-11T22:59:04.772Z,9.18
2022-10-11T23:01:36.678Z,9.15
2022-10-11T23:04:09.110Z,8.60
2022-10-11T23:06:41.191Z,8.30
2022-10-11T23:09:13.797Z,9.35
2022-10-11T23:11:48.730Z,9.35
2022-10-11T23:14:21.088Z,8.27
2022-10-11T23:16:54.971Z,9.75
2022-10-11T23:19:27.370Z,9.07
2022-10-11T23:21:59.628Z,8.85
2022-10-11T23:24:32.568Z,9.40
2022-10-11T23:27:07.789Z,9.52
2022-10-11T23:29:41.408Z,8.85
2022-10-11T23:32:14.731Z,9.57
2022-10-11T23:34:47.312Z,9.13
2022-10-11T23:37:19.530Z,8.98
2022-10-11T23:39:52.228Z,9.45
2022-10-11T23:42:26.988Z,9.13
2022-10-11T23:44:59.510Z,8.90
2022-10-11T23:47:31.550Z,9.50
2022-10-11T23:50:04.214Z,9.35
2022-10-11T23:52:36.370Z,9.13
2022-10-11T23:55:09.435Z,9.45
2022-10-11T23:57:44.470Z,8.85
